^^
Datos históricos de la estación: Murcia-Puente Tocinos
Diario Informe para Marzo 29, 2019 Unidades:  Ambas    Ingés   Métrico
Diario Semanal Mensual Anual
  Máxima: Mínima: Promedio:
Temperatura: 91.8 °F /  33.2 °C 73.8 °F /  23.2 °C 81.9 °F /  27.7 °C
Punto de rocio: 69.8 °F /  21 °C 58.6 °F /  14.8 °C 64.9 °F /  18.3 °C
Humedad: 84% 34.3% 60%
Velocidad viento: 11.2mph /  18km/h - 5.6mph /  9km/h
Racha viento: 19mph /  30.6km/h - -
Viento- - ESE
Presión: 29.8 in /  1009.9 hPa 29.7 in /  1007.3 hPa -
Precipitación: 0 in /  0.0 mm    
 
 
Tabla de datos para Marzo 29, 2019
Hora Temperatura Punto de rocio Presión Viento Velocidad viento Racha viento Humedad Intensidad lluvia(por hora) Nubes
00:04 76.6 °F /  24.8 °C 68.9 °F /  20.5 °C 29.8in /  1009.2hPa NE 8.1mph /  13km/h 14mph /  22.5km/h 77% 0in /  0.0mm
00:09 76.5 °F /  24.7 °C 69.1 °F /  20.6 °C 29.8in /  1009.2hPa NE 8mph /  12.8km/h 13mph /  20.9km/h 77.6% 0in /  0.0mm
00:14 76.5 °F /  24.7 °C 69.1 °F /  20.6 °C 29.8in /  1009.2hPa NE 7.6mph /  12.2km/h 13mph /  20.9km/h 78% 0in /  0.0mm
00:19 76.5 °F /  24.7 °C 69.1 °F /  20.6 °C 29.8in /  1009.2hPa NE 7.4mph /  11.9km/h 12mph /  19.3km/h 78.1% 0in /  0.0mm
00:24 76.3 °F /  24.6 °C 69.3 °F /  20.7 °C 29.8in /  1009.2hPa NNE 6.9mph /  11.1km/h 13.8mph /  22.2km/h 79% 0in /  0.0mm
00:29 76.1 °F /  24.5 °C 69.1 °F /  20.6 °C 29.8in /  1009.2hPa NE 7.1mph /  11.5km/h 14mph /  22.5km/h 79% 0in /  0.0mm
00:34 76.1 °F /  24.5 °C 69.4 °F /  20.8 °C 29.8in /  1009.2hPa NE 7.6mph /  12.2km/h 14mph /  22.5km/h 79.8% 0in /  0.0mm
00:39 76.1 °F /  24.5 °C 69.4 °F /  20.8 °C 29.8in /  1009.2hPa NE 7.5mph /  12.1km/h 14mph /  22.5km/h 80% 0in /  0.0mm
00:44 75.9 °F /  24.4 °C 69.3 °F /  20.7 °C 29.8in /  1009.2hPa NE 7.4mph /  11.9km/h 13mph /  20.9km/h 80% 0in /  0.0mm
00:49 75.9 °F /  24.4 °C 69.3 °F /  20.7 °C 29.8in /  1009.2hPa NE 7mph /  11.3km/h 12mph /  19.3km/h 80% 0in /  0.0mm
00:54 75.9 °F /  24.4 °C 69.3 °F /  20.7 °C 29.8in /  1009.2hPa NE 6.2mph /  10km/h 10mph /  16.1km/h 80% 0in /  0.0mm
00:59 75.7 °F /  24.3 °C 69.6 °F /  20.9 °C 29.8in /  1009.2hPa NNE 6.3mph /  10.1km/h 11.5mph /  18.5km/h 81% 0in /  0.0mm
01:04 75.7 °F /  24.3 °C 69.4 °F /  20.8 °C 29.8in /  1009.2hPa NE 6.4mph /  10.3km/h 12mph /  19.3km/h 81% 0in /  0.0mm
01:09 75.7 °F /  24.3 °C 69.4 °F /  20.8 °C 29.8in /  1009.2hPa NE 6.6mph /  10.6km/h 12mph /  19.3km/h 81% 0in /  0.0mm
01:14 75.6 °F /  24.2 °C 69.4 °F /  20.8 °C 29.8in /  1009.2hPa NE 6.9mph /  11.1km/h 12mph /  19.3km/h 81.2% 0in /  0.0mm
01:19 75.6 °F /  24.2 °C 69.6 °F /  20.9 °C 29.8in /  1009.3hPa NE 6.8mph /  10.9km/h 10mph /  16.1km/h 82% 0in /  0.0mm
01:24 75.6 °F /  24.2 °C 69.6 °F /  20.9 °C 29.8in /  1009.3hPa NE 6.4mph /  10.3km/h 11.8mph /  19km/h 82% 0in /  0.0mm
01:29 75.4 °F /  24.1 °C 69.4 °F /  20.8 °C 29.8in /  1009.3hPa NE 6.4mph /  10.3km/h 12mph /  19.3km/h 82% 0in /  0.0mm
01:34 75.4 °F /  24.1 °C 69.4 °F /  20.8 °C 29.8in /  1009.3hPa NE 6.4mph /  10.3km/h 10mph /  16.1km/h 82% 0in /  0.0mm
01:39 75.4 °F /  24.1 °C 69.4 °F /  20.8 °C 29.8in /  1009.0hPa NE 6.1mph /  9.8km/h 9mph /  14.5km/h 82% 0in /  0.0mm
01:44 75.2 °F /  24 °C 69.3 °F /  20.7 °C 29.8in /  1009.0hPa NE 5.4mph /  8.7km/h 9.7mph /  15.6km/h 82% 0in /  0.0mm
01:49 75 °F /  23.9 °C 69.1 °F /  20.6 °C 29.8in /  1009.1hPa NE 5.4mph /  8.7km/h 10mph /  16.1km/h 82% 0in /  0.0mm
01:54 74.8 °F /  23.8 °C 69.1 °F /  20.6 °C 29.8in /  1009.1hPa NE 5.4mph /  8.7km/h 10.7mph /  17.2km/h 82.2% 0in /  0.0mm
01:59 74.8 °F /  23.8 °C 69.3 °F /  20.7 °C 29.8in /  1009.1hPa NE 5.8mph /  9.3km/h 11mph /  17.7km/h 83% 0in /  0.0mm
02:04 74.8 °F /  23.8 °C 69.3 °F /  20.7 °C 29.8in /  1009.1hPa NE 6.4mph /  10.3km/h 10mph /  16.1km/h 83% 0in /  0.0mm
02:09 74.7 °F /  23.7 °C 69.3 °F /  20.7 °C 29.8in /  1009.0hPa NE 6.1mph /  9.8km/h 9mph /  14.5km/h 83% 0in /  0.0mm
02:14 74.7 °F /  23.7 °C 69.3 °F /  20.7 °C 29.8in /  1009.0hPa NE 5.4mph /  8.7km/h 8.5mph /  13.7km/h 83% 0in /  0.0mm
02:19 74.7 °F /  23.7 °C 69.1 °F /  20.6 °C 29.8in /  1009.0hPa NE 5.4mph /  8.7km/h 10.4mph /  16.7km/h 83% 0in /  0.0mm
02:24 74.5 °F /  23.6 °C 69.3 °F /  20.7 °C 29.8in /  1009.0hPa NE 5.4mph /  8.7km/h 10mph /  16.1km/h 83.6% 0in /  0.0mm
02:29 74.5 °F /  23.6 °C 69.3 °F /  20.7 °C 29.8in /  1009.0hPa NE 5.4mph /  8.7km/h 9.2mph /  14.8km/h 84% 0in /  0.0mm
02:34 74.5 °F /  23.6 °C 69.3 °F /  20.7 °C 29.8in /  1009.0hPa NE 5.4mph /  8.7km/h 9.2mph /  14.8km/h 84% 0in /  0.0mm
02:39 74.3 °F /  23.5 °C 69.1 °F /  20.6 °C 29.8in /  1008.8hPa NE 5.6mph /  9km/h 9.2mph /  14.8km/h 84% 0in /  0.0mm
02:44 74.1 °F /  23.4 °C 69.1 °F /  20.6 °C 29.8in /  1008.8hPa NE 5.9mph /  9.5km/h 9mph /  14.5km/h 84% 0in /  0.0mm
02:49 74.1 °F /  23.4 °C 69.1 °F /  20.6 °C 29.8in /  1008.8hPa NE 5.9mph /  9.5km/h 9mph /  14.5km/h 84% 0in /  0.0mm
02:54 74.1 °F /  23.4 °C 69.1 °F /  20.6 °C 29.8in /  1008.8hPa NE 5.9mph /  9.5km/h 9mph /  14.5km/h 84% 0in /  0.0mm
02:59 74.1 °F /  23.4 °C 69.1 °F /  20.6 °C 29.8in /  1008.8hPa NE 5.7mph /  9.1km/h 8.1mph /  13km/h 84% 0in /  0.0mm
03:04 74.1 °F /  23.4 °C 69.1 °F /  20.6 °C 29.8in /  1008.8hPa NE 5.2mph /  8.4km/h 8mph /  12.9km/h 84% 0in /  0.0mm
03:09 74.1 °F /  23.4 °C 69.1 °F /  20.6 °C 29.8in /  1008.8hPa NE 4.9mph /  7.9km/h 7mph /  11.3km/h 84% 0in /  0.0mm
03:14 74.1 °F /  23.4 °C 68.5 °F /  20.3 °C 29.8in /  1008.8hPa NE 4.3mph /  6.9km/h 8.1mph /  13km/h 83.1% 0in /  0.0mm
03:19 73.9 °F /  23.3 °C 68.5 °F /  20.3 °C 29.8in /  1008.8hPa NE 4.4mph /  7.1km/h 8mph /  12.9km/h 83% 0in /  0.0mm
03:24 73.9 °F /  23.3 °C 68.2 °F /  20.1 °C 29.8in /  1008.7hPa NE 4.7mph /  7.6km/h 7mph /  11.3km/h 82.4% 0in /  0.0mm
03:29 73.9 °F /  23.3 °C 68.2 °F /  20.1 °C 29.8in /  1008.7hPa NE 4.6mph /  7.4km/h 7mph /  11.3km/h 82% 0in /  0.0mm
03:34 73.9 °F /  23.3 °C 67.8 °F /  19.9 °C 29.8in /  1008.7hPa ENE 4.3mph /  6.9km/h 7mph /  11.3km/h 81.2% 0in /  0.0mm
03:39 73.8 °F /  23.2 °C 67.5 °F /  19.7 °C 29.8in /  1008.7hPa NE 3.9mph /  6.3km/h 5.2mph /  8.4km/h 80.6% 0in /  0.0mm
03:44 73.8 °F /  23.2 °C 66.9 °F /  19.4 °C 29.8in /  1008.7hPa Este 3.1mph /  5km/h 5.9mph /  9.5km/h 79.4% 0in /  0.0mm
03:49 73.8 °F /  23.2 °C 66.6 °F /  19.2 °C 29.8in /  1008.8hPa Este 3.1mph /  5km/h 6mph /  9.7km/h 78% 0in /  0.0mm
03:54 73.9 °F /  23.3 °C 66 °F /  18.9 °C 29.8in /  1008.8hPa Este 3.1mph /  5km/h 5.2mph /  8.4km/h 76.4% 0in /  0.0mm
03:59 73.9 °F /  23.3 °C 65.3 °F /  18.5 °C 29.8in /  1008.8hPa Este 3.1mph /  5km/h 5mph /  8km/h 74.6% 0in /  0.0mm
04:04 74.1 °F /  23.4 °C 65.1 °F /  18.4 °C 29.8in /  1008.8hPa Este 3.1mph /  5km/h 5mph /  8km/h 73.6% 0in /  0.0mm
04:09 74.1 °F /  23.4 °C 64.8 °F /  18.2 °C 29.8in /  1008.8hPa Este 3.1mph /  5km/h 5.2mph /  8.4km/h 72.4% 0in /  0.0mm
04:14 74.3 °F /  23.5 °C 64.4 °F /  18 °C 29.8in /  1008.8hPa Este 3.1mph /  5km/h 5.2mph /  8.4km/h 71.3% 0in /  0.0mm
04:19 74.3 °F /  23.5 °C 64.4 °F /  18 °C 29.8in /  1008.8hPa ESE 3.1mph /  5km/h 5mph /  8km/h 71% 0in /  0.0mm
04:24 74.5 °F /  23.6 °C 64.2 °F /  17.9 °C 29.8in /  1008.8hPa SE 3.1mph /  5km/h 5.8mph /  9.3km/h 70.3% 0in /  0.0mm
04:29 74.5 °F /  23.6 °C 64.2 °F /  17.9 °C 29.8in /  1008.8hPa SE 3.1mph /  5km/h 6mph /  9.7km/h 70.3% 0in /  0.0mm
04:34 74.5 °F /  23.6 °C 64.6 °F /  18.1 °C 29.8in /  1008.8hPa SE 3.1mph /  5km/h 5mph /  8km/h 71% 0in /  0.0mm
04:39 74.5 °F /  23.6 °C 64.8 °F /  18.2 °C 29.8in /  1008.8hPa Sur 2.7mph /  4.3km/h 5.8mph /  9.3km/h 71.8% 0in /  0.0mm
04:44 74.5 °F /  23.6 °C 64.9 °F /  18.3 °C 29.8in /  1008.8hPa SSE 1.8mph /  2.9km/h 6mph /  9.7km/h 72% 0in /  0.0mm
04:49 74.5 °F /  23.6 °C 64.9 °F /  18.3 °C 29.8in /  1008.8hPa SSE 2.2mph /  3.5km/h 5.2mph /  8.4km/h 72% 0in /  0.0mm
04:54 74.5 °F /  23.6 °C 64.9 °F /  18.3 °C 29.8in /  1008.7hPa SSE 3.1mph /  5km/h 5.4mph /  8.7km/h 72.1% 0in /  0.0mm
04:59 74.5 °F /  23.6 °C 65.3 °F /  18.5 °C 29.8in /  1008.7hPa SSO 3.1mph /  5km/h 6mph /  9.7km/h 73% 0in /  0.0mm
05:04 74.5 °F /  23.6 °C 65.5 °F /  18.6 °C 29.8in /  1008.7hPa SSO 3.1mph /  5km/h 6.9mph /  11.1km/h 73.9% 0in /  0.0mm
05:09 74.5 °F /  23.6 °C 65.8 °F /  18.8 °C 29.8in /  1008.7hPa SSO 3.2mph /  5.2km/h 7mph /  11.3km/h 74.6% 0in /  0.0mm
05:14 74.5 °F /  23.6 °C 66.4 °F /  19.1 °C 29.8in /  1008.7hPa SSO 3.6mph /  5.8km/h 7mph /  11.3km/h 76% 0in /  0.0mm
05:19 74.5 °F /  23.6 °C 66.4 °F /  19.1 °C 29.8in /  1008.8hPa SO 3.7mph /  6km/h 7mph /  11.3km/h 76% 0in /  0.0mm
05:24 74.5 °F /  23.6 °C 66.4 °F /  19.1 °C 29.8in /  1008.8hPa SSO 4mph /  6.5km/h 7.4mph /  11.9km/h 76.2% 0in /  0.0mm
05:29 74.5 °F /  23.6 °C 66.7 °F /  19.3 °C 29.8in /  1008.8hPa SSO 3.9mph /  6.3km/h 7mph /  11.3km/h 77% 0in /  0.0mm
05:34 74.3 °F /  23.5 °C 66.4 °F /  19.1 °C 29.8in /  1008.8hPa SSO 3.6mph /  5.8km/h 6.9mph /  11.1km/h 76.4% 0in /  0.0mm
05:39 74.1 °F /  23.4 °C 66.4 °F /  19.1 °C 29.8in /  1008.8hPa SO 3.6mph /  5.8km/h 7mph /  11.3km/h 76.7% 0in /  0.0mm
05:44 74.1 °F /  23.4 °C 66.4 °F /  19.1 °C 29.8in /  1008.8hPa SO 3.6mph /  5.8km/h 6.9mph /  11.1km/h 77.1% 0in /  0.0mm
05:49 74.1 °F /  23.4 °C 66.7 °F /  19.3 °C 29.8in /  1008.9hPa SO 3.6mph /  5.8km/h 7mph /  11.3km/h 78% 0in /  0.0mm
05:54 74.1 °F /  23.4 °C 66.7 °F /  19.3 °C 29.8in /  1008.9hPa SO 3.6mph /  5.8km/h 6mph /  9.7km/h 78% 0in /  0.0mm
05:59 74.1 °F /  23.4 °C 66.7 °F /  19.3 °C 29.8in /  1008.9hPa SO 3.4mph /  5.4km/h 6mph /  9.7km/h 78% 0in /  0.0mm
06:04 74.1 °F /  23.4 °C 66.7 °F /  19.3 °C 29.8in /  1008.9hPa OSO 2.9mph /  4.6km/h 6.2mph /  10km/h 77.8% 0in /  0.0mm
06:09 74.1 °F /  23.4 °C 66.4 °F /  19.1 °C 29.8in /  1008.9hPa SO 3.1mph /  5km/h 6mph /  9.7km/h 77% 0in /  0.0mm
06:14 74.1 °F /  23.4 °C 66.4 °F /  19.1 °C 29.8in /  1008.9hPa SO 3.6mph /  5.8km/h 6mph /  9.7km/h 77% 0in /  0.0mm
06:19 74.1 °F /  23.4 °C 66.4 °F /  19.1 °C 29.8in /  1008.9hPa SO 3.4mph /  5.4km/h 6mph /  9.7km/h 77% 0in /  0.0mm
06:24 74.1 °F /  23.4 °C 66.4 °F /  19.1 °C 29.8in /  1008.9hPa OSO 2.9mph /  4.7km/h 6mph /  9.7km/h 77% 0in /  0.0mm
06:29 74.1 °F /  23.4 °C 66.2 °F /  19 °C 29.8in /  1008.9hPa SO 3mph /  4.8km/h 6mph /  9.7km/h 76.6% 0in /  0.0mm
06:34 74.1 °F /  23.4 °C 66 °F /  18.9 °C 29.8in /  1009.0hPa SO 3.1mph /  5km/h 6.9mph /  11.1km/h 76% 0in /  0.0mm
06:39 74.1 °F /  23.4 °C 66 °F /  18.9 °C 29.8in /  1009.0hPa SO 3.1mph /  5km/h 7mph /  11.3km/h 76% 0in /  0.0mm
06:44 74.1 °F /  23.4 °C 66 °F /  18.9 °C 29.8in /  1009.0hPa SO 3.1mph /  5km/h 5.9mph /  9.5km/h 76% 0in /  0.0mm
06:49 74.1 °F /  23.4 °C 66 °F /  18.9 °C 29.8in /  1009.2hPa SO 3mph /  4.9km/h 6mph /  9.7km/h 76% 0in /  0.0mm
06:54 74.1 °F /  23.4 °C 66 °F /  18.9 °C 29.8in /  1009.2hPa SO 2.9mph /  4.7km/h 5mph /  8km/h 76% 0in /  0.0mm
06:59 74.1 °F /  23.4 °C 66 °F /  18.9 °C 29.8in /  1009.2hPa SSO 2.9mph /  4.7km/h 5.2mph /  8.4km/h 76% 0in /  0.0mm
07:04 73.9 °F /  23.3 °C 66 °F /  18.9 °C 29.8in /  1009.2hPa SSO 2.9mph /  4.6km/h 5.9mph /  9.5km/h 76.3% 0in /  0.0mm
07:09 73.9 °F /  23.3 °C 66.4 °F /  19.1 °C 29.8in /  1009.2hPa SSO 3.2mph /  5.2km/h 7.4mph /  11.9km/h 77% 0in /  0.0mm
07:14 73.9 °F /  23.3 °C 66.2 °F /  19 °C 29.8in /  1009.2hPa SSO 4mph /  6.5km/h 7mph /  11.3km/h 77% 0in /  0.0mm
07:19 73.8 °F /  23.2 °C 66.4 °F /  19.1 °C 29.8in /  1009.4hPa SO 4mph /  6.5km/h 6.2mph /  10km/h 77.7% 0in /  0.0mm
07:24 73.9 °F /  23.3 °C 66.6 °F /  19.2 °C 29.8in /  1009.4hPa SO 4mph /  6.5km/h 6mph /  9.7km/h 78% 0in /  0.0mm
07:29 73.9 °F /  23.3 °C 66.6 °F /  19.2 °C 29.8in /  1009.4hPa OSO 3.7mph /  5.9km/h 6mph /  9.7km/h 78% 0in /  0.0mm
07:34 73.9 °F /  23.3 °C 66.7 °F /  19.3 °C 29.8in /  1009.5hPa OSO 2.9mph /  4.7km/h 4.6mph /  7.4km/h 78% 0in /  0.0mm
07:39 74.1 °F /  23.4 °C 66.7 °F /  19.3 °C 29.8in /  1009.5hPa SO 2.5mph /  4.1km/h 5.4mph /  8.7km/h 78% 0in /  0.0mm
07:44 74.1 °F /  23.4 °C 67.1 °F /  19.5 °C 29.8in /  1009.5hPa SO 1.8mph /  2.9km/h 6mph /  9.7km/h 78.7% 0in /  0.0mm
07:49 74.3 °F /  23.5 °C 67.3 °F /  19.6 °C 29.8in /  1009.6hPa SO 1.8mph /  2.9km/h 6mph /  9.7km/h 79% 0in /  0.0mm
07:54 74.3 °F /  23.5 °C 67.5 °F /  19.7 °C 29.8in /  1009.6hPa Oeste 1.8mph /  2.9km/h 4.6mph /  7.4km/h 79.4% 0in /  0.0mm
07:59 74.3 °F /  23.5 °C 67.8 °F /  19.9 °C 29.8in /  1009.6hPa Oeste 1.8mph /  2.9km/h 5mph /  8km/h 80% 0in /  0.0mm
08:04 74.5 °F /  23.6 °C 67.6 °F /  19.8 °C 29.8in /  1009.7hPa Oeste 1.8mph /  2.9km/h 5mph /  8km/h 79.2% 0in /  0.0mm
08:09 74.5 °F /  23.6 °C 67.5 °F /  19.7 °C 29.8in /  1009.7hPa Oeste 1.8mph /  2.9km/h 4mph /  6.4km/h 78.9% 0in /  0.0mm
08:14 74.8 °F /  23.8 °C 67.5 °F /  19.7 °C 29.8in /  1009.7hPa Oeste 1.8mph /  2.9km/h 3.1mph /  5km/h 78% 0in /  0.0mm
08:19 75 °F /  23.9 °C 67.3 °F /  19.6 °C 29.8in /  1009.8hPa ONO 1.2mph /  1.9km/h 3mph /  4.8km/h 76.8% 0in /  0.0mm
08:24 75.4 °F /  24.1 °C 66.9 °F /  19.4 °C 29.8in /  1009.8hPa Calm   3.6mph /  5.8km/h 75% 0in /  0.0mm
08:29 75.4 °F /  24.1 °C 66.9 °F /  19.4 °C 29.8in /  1009.8hPa NE 0.6mph /  1km/h 4mph /  6.4km/h 75% 0in /  0.0mm
08:34 75.2 °F /  24 °C 66.6 °F /  19.2 °C 29.8in /  1009.8hPa NE 1.8mph /  2.9km/h 4mph /  6.4km/h 74.8% 0in /  0.0mm
08:39 75.4 °F /  24.1 °C 66.7 °F /  19.3 °C 29.8in /  1009.8hPa NE 1.8mph /  2.9km/h 4.6mph /  7.4km/h 74.7% 0in /  0.0mm
08:44 75.7 °F /  24.3 °C 66.6 °F /  19.2 °C 29.8in /  1009.8hPa ESE 1.8mph /  2.9km/h 5mph /  8km/h 73.2% 0in /  0.0mm
08:49 75.7 °F /  24.3 °C 66.6 °F /  19.2 °C 29.8in /  1009.9hPa ESE 2.1mph /  3.4km/h 5mph /  8km/h 73% 0in /  0.0mm
08:54 75.7 °F /  24.3 °C 66.9 °F /  19.4 °C 29.8in /  1009.9hPa ESE 2.9mph /  4.7km/h 5mph /  8km/h 73.9% 0in /  0.0mm
08:59 76.1 °F /  24.5 °C 67.1 °F /  19.5 °C 29.8in /  1009.9hPa ENE 2.5mph /  4km/h 4mph /  6.4km/h 73.6% 0in /  0.0mm
09:04 76.6 °F /  24.8 °C 67.3 °F /  19.6 °C 29.8in /  1009.9hPa Este 1.8mph /  2.9km/h 4mph /  6.4km/h 73% 0in /  0.0mm
09:09 77.2 °F /  25.1 °C 67.8 °F /  19.9 °C 29.8in /  1009.8hPa Este 1.8mph /  2.9km/h 5.2mph /  8.4km/h 73% 0in /  0.0mm
09:14 77.4 °F /  25.2 °C 68 °F /  20 °C 29.8in /  1009.8hPa Sur 1.8mph /  2.9km/h 5.4mph /  8.7km/h 73.1% 0in /  0.0mm
09:19 76.8 °F /  24.9 °C 68.2 °F /  20.1 °C 29.8in /  1009.9hPa Sur 2.4mph /  3.8km/h 6mph /  9.7km/h 74.3% 0in /  0.0mm
09:24 76.8 °F /  24.9 °C 68.4 °F /  20.2 °C 29.8in /  1009.9hPa SE 3.6mph /  5.8km/h 6mph /  9.7km/h 75% 0in /  0.0mm
09:29 77.4 °F /  25.2 °C 68.4 °F /  20.2 °C 29.8in /  1009.9hPa SSE 3mph /  4.8km/h 4.6mph /  7.4km/h 74.3% 0in /  0.0mm
09:34 77.5 °F /  25.3 °C 68.4 °F /  20.2 °C 29.8in /  1009.9hPa SE 1.8mph /  2.9km/h 5mph /  8km/h 73.5% 0in /  0.0mm
09:39 77.9 °F /  25.5 °C 68.5 °F /  20.3 °C 29.8in /  1009.9hPa SE 1.9mph /  3km/h 5mph /  8km/h 72.9% 0in /  0.0mm
09:44 78.3 °F /  25.7 °C 68.5 °F /  20.3 °C 29.8in /  1009.9hPa ONO 2mph /  3.2km/h 5mph /  8km/h 72% 0in /  0.0mm
09:49 78.4 °F /  25.8 °C 68.4 °F /  20.2 °C 29.8in /  1009.9hPa Oeste 2mph /  3.2km/h 5.2mph /  8.4km/h 71.4% 0in /  0.0mm
09:54 78.4 °F /  25.8 °C 68.5 °F /  20.3 °C 29.8in /  1009.9hPa SO 2mph /  3.2km/h 5mph /  8km/h 71.4% 0in /  0.0mm
09:59 78.4 °F /  25.8 °C 68.4 °F /  20.2 °C 29.8in /  1009.9hPa SO 1.9mph /  3.1km/h 5mph /  8km/h 71% 0in /  0.0mm
10:04 78.4 °F /  25.8 °C 67.6 °F /  19.8 °C 29.8in /  1009.9hPa Oeste 1.8mph /  2.9km/h 5mph /  8km/h 69.6% 0in /  0.0mm
10:09 78.6 °F /  25.9 °C 67.6 °F /  19.8 °C 29.8in /  1009.9hPa NNO 2mph /  3.2km/h 5.8mph /  9.3km/h 69.2% 0in /  0.0mm
10:14 78.8 °F /  26 °C 68.2 °F /  20.1 °C 29.8in /  1009.9hPa NO 2.4mph /  3.9km/h 6mph /  9.7km/h 69.9% 0in /  0.0mm
10:19 79.2 °F /  26.2 °C 68 °F /  20 °C 29.8in /  1009.9hPa ONO 2.4mph /  3.9km/h 5.2mph /  8.4km/h 68.4% 0in /  0.0mm
10:24 79.3 °F /  26.3 °C 68 °F /  20 °C 29.8in /  1009.9hPa NO 2.4mph /  3.9km/h 5mph /  8km/h 68.1% 0in /  0.0mm
10:29 79.9 °F /  26.6 °C 68 °F /  20 °C 29.8in /  1009.9hPa NNE 2.2mph /  3.6km/h 4.6mph /  7.4km/h 66.9% 0in /  0.0mm
10:34 80.2 °F /  26.8 °C 67.6 °F /  19.8 °C 29.8in /  1009.9hPa NNE 1.8mph /  2.9km/h 5.2mph /  8.4km/h 65.6% 0in /  0.0mm
10:39 80.8 °F /  27.1 °C 67.6 °F /  19.8 °C 29.8in /  1009.8hPa NNO 2mph /  3.2km/h 5mph /  8km/h 64.2% 0in /  0.0mm
10:44 81.1 °F /  27.3 °C 67.3 °F /  19.6 °C 29.8in /  1009.8hPa NNE 2.4mph /  3.9km/h 5mph /  8km/h 62.9% 0in /  0.0mm
10:49 81.7 °F /  27.6 °C 67.1 °F /  19.5 °C 29.8in /  1009.8hPa NO 2.4mph /  3.9km/h 5mph /  8km/h 61.4% 0in /  0.0mm
10:54 81.9 °F /  27.7 °C 67.3 °F /  19.6 °C 29.8in /  1009.8hPa North 2.4mph /  3.9km/h 5mph /  8km/h 61.2% 0in /  0.0mm
10:59 82.2 °F /  27.9 °C 66.9 °F /  19.4 °C 29.8in /  1009.8hPa NNE 2.5mph /  4.1km/h 5mph /  8km/h 59.8% 0in /  0.0mm
11:04 82.6 °F /  28.1 °C 66.7 °F /  19.3 °C 29.8in /  1009.8hPa Este 2.9mph /  4.7km/h 5mph /  8km/h 59% 0in /  0.0mm
11:09 82.8 °F /  28.2 °C 66.6 °F /  19.2 °C 29.8in /  1009.8hPa SSE 2.5mph /  4.1km/h 5mph /  8km/h 58.3% 0in /  0.0mm
11:14 82.9 °F /  28.3 °C 66.6 °F /  19.2 °C 29.8in /  1009.8hPa OSO 1.8mph /  2.9km/h 5mph /  8km/h 58% 0in /  0.0mm
11:19 83.1 °F /  28.4 °C 66.6 °F /  19.2 °C 29.8in /  1009.8hPa NNE 2mph /  3.2km/h 8.1mph /  13km/h 57.4% 0in /  0.0mm
11:24 83.3 °F /  28.5 °C 66.4 °F /  19.1 °C 29.8in /  1009.7hPa NNO 2.4mph /  3.9km/h 8.1mph /  13km/h 57.1% 0in /  0.0mm
11:29 82.9 °F /  28.3 °C 66.2 °F /  19 °C 29.8in /  1009.7hPa NNO 2.7mph /  4.4km/h 7mph /  11.3km/h 57.2% 0in /  0.0mm
11:34 82.9 °F /  28.3 °C 66.6 °F /  19.2 °C 29.8in /  1009.7hPa NO 3.6mph /  5.8km/h 6.9mph /  11.1km/h 58% 0in /  0.0mm
11:39 83.3 °F /  28.5 °C 66.7 °F /  19.3 °C 29.8in /  1009.7hPa OSO 3.4mph /  5.4km/h 7mph /  11.3km/h 57.8% 0in /  0.0mm
11:44 83.7 °F /  28.7 °C 66.4 °F /  19.1 °C 29.8in /  1009.7hPa SSO 2.9mph /  4.7km/h 8.1mph /  13km/h 56.5% 0in /  0.0mm
11:49 83.8 °F /  28.8 °C 66 °F /  18.9 °C 29.8in /  1009.7hPa ENE 3.1mph /  5km/h 8mph /  12.9km/h 55.4% 0in /  0.0mm
11:54 84.4 °F /  29.1 °C 66.6 °F /  19.2 °C 29.8in /  1009.6hPa NE 3.6mph /  5.8km/h 7mph /  11.3km/h 55.5% 0in /  0.0mm
11:59 84.9 °F /  29.4 °C 66.9 °F /  19.4 °C 29.8in /  1009.6hPa Oeste 3mph /  4.8km/h 6.2mph /  10km/h 54.9% 0in /  0.0mm
12:04 85.5 °F /  29.7 °C 67.1 °F /  19.5 °C 29.8in /  1009.6hPa NE 1.8mph /  2.9km/h 7.4mph /  11.9km/h 54.4% 0in /  0.0mm
12:09 85.5 °F /  29.7 °C 66.7 °F /  19.3 °C 29.8in /  1009.6hPa NE 2.6mph /  4.2km/h 10.4mph /  16.7km/h 53.7% 0in /  0.0mm
12:14 85.5 °F /  29.7 °C 66.2 °F /  19 °C 29.8in /  1009.6hPa NE 4.3mph /  6.9km/h 10mph /  16.1km/h 53% 0in /  0.0mm
12:19 85.5 °F /  29.7 °C 66.2 °F /  19 °C 29.8in /  1009.6hPa NNE 4.3mph /  6.9km/h 8.1mph /  13km/h 53% 0in /  0.0mm
12:24 85.6 °F /  29.8 °C 66 °F /  18.9 °C 29.8in /  1009.5hPa ESE 4.3mph /  6.9km/h 9.2mph /  14.8km/h 52.2% 0in /  0.0mm
12:29 86 °F /  30 °C 65.5 °F /  18.6 °C 29.8in /  1009.5hPa SE 4.2mph /  6.8km/h 9.2mph /  14.8km/h 50.6% 0in /  0.0mm
12:34 86.2 °F /  30.1 °C 65.5 °F /  18.6 °C 29.8in /  1009.5hPa NNE 4mph /  6.5km/h 9mph /  14.5km/h 50% 0in /  0.0mm
12:39 86.4 °F /  30.2 °C 64.8 °F /  18.2 °C 29.8in /  1009.4hPa North 4.1mph /  6.6km/h 8.5mph /  13.7km/h 48.8% 0in /  0.0mm
12:44 86.5 °F /  30.3 °C 64.6 °F /  18.1 °C 29.8in /  1009.4hPa Este 4.3mph /  6.9km/h 9mph /  14.5km/h 48.1% 0in /  0.0mm
12:49 86.9 °F /  30.5 °C 64.8 °F /  18.2 °C 29.8in /  1009.4hPa NE 4.2mph /  6.8km/h 8.7mph /  14km/h 48% 0in /  0.0mm
12:54 87.3 °F /  30.7 °C 64 °F /  17.8 °C 29.8in /  1009.3hPa NE 4mph /  6.5km/h 9.2mph /  14.8km/h 45.9% 0in /  0.0mm
12:59 87.6 °F /  30.9 °C 63.7 °F /  17.6 °C 29.8in /  1009.3hPa ESE 4.1mph /  6.6km/h 9mph /  14.5km/h 45% 0in /  0.0mm
13:04 88.2 °F /  31.2 °C 63.5 °F /  17.5 °C 29.8in /  1009.3hPa ESE 4.3mph /  6.9km/h 8mph /  12.9km/h 44% 0in /  0.0mm
13:09 88.5 °F /  31.4 °C 63.9 °F /  17.7 °C 29.8in /  1009.2hPa NO 3.9mph /  6.3km/h 7mph /  11.3km/h 44% 0in /  0.0mm
13:14 89.1 °F /  31.7 °C 64 °F /  17.8 °C 29.8in /  1009.2hPa Este 3.1mph /  5km/h 9.2mph /  14.8km/h 43.6% 0in /  0.0mm
13:19 89.4 °F /  31.9 °C 63.3 °F /  17.4 °C 29.8in /  1009.2hPa SE 3.4mph /  5.4km/h 9.2mph /  14.8km/h 41.9% 0in /  0.0mm
13:24 89.8 °F /  32.1 °C 61.9 °F /  16.6 °C 29.8in /  1009.0hPa SSE 4mph /  6.5km/h 9mph /  14.5km/h 39.7% 0in /  0.0mm
13:29 89.8 °F /  32.1 °C 62.4 °F /  16.9 °C 29.8in /  1009.0hPa ENE 3.9mph /  6.2km/h 9mph /  14.5km/h 40.2% 0in /  0.0mm
13:34 90.1 °F /  32.3 °C 61.7 °F /  16.5 °C 29.8in /  1009.0hPa NE 3.6mph /  5.8km/h 11.5mph /  18.5km/h 38.8% 0in /  0.0mm
13:39 90.3 °F /  32.4 °C 61 °F /  16.1 °C 29.8in /  1008.8hPa NE 3.7mph /  6km/h 12mph /  19.3km/h 37.5% 0in /  0.0mm
13:44 90.7 °F /  32.6 °C 60.8 °F /  16 °C 29.8in /  1008.8hPa ENE 4mph /  6.5km/h 9mph /  14.5km/h 37.1% 0in /  0.0mm
13:49 90.9 °F /  32.7 °C 60.3 °F /  15.7 °C 29.8in /  1008.8hPa SE 4mph /  6.5km/h 12.5mph /  20.1km/h 36.1% 0in /  0.0mm
13:54 90.7 °F /  32.6 °C 59.7 °F /  15.4 °C 29.8in /  1008.6hPa SE 4mph /  6.5km/h 13.8mph /  22.2km/h 35.5% 0in /  0.0mm
13:59 90.5 °F /  32.5 °C 59.4 °F /  15.2 °C 29.8in /  1008.6hPa ESE 5.3mph /  8.5km/h 14mph /  22.5km/h 35.1% 0in /  0.0mm
14:04 90.3 °F /  32.4 °C 59.4 °F /  15.2 °C 29.8in /  1008.6hPa Sur 7.4mph /  11.9km/h 14mph /  22.5km/h 35.5% 0in /  0.0mm
14:09 90.7 °F /  32.6 °C 59.7 °F /  15.4 °C 29.8in /  1008.6hPa Este 6.6mph /  10.7km/h 11mph /  17.7km/h 35.7% 0in /  0.0mm
14:14 91 °F /  32.8 °C 59.4 °F /  15.2 °C 29.8in /  1008.6hPa SE 5.2mph /  8.4km/h 11.8mph /  19km/h 34.7% 0in /  0.0mm
14:19 91.2 °F /  32.9 °C 59.2 °F /  15.1 °C 29.8in /  1008.6hPa ESE 5.7mph /  9.2km/h 12mph /  19.3km/h 34.3% 0in /  0.0mm
14:24 90.9 °F /  32.7 °C 59.4 °F /  15.2 °C 29.8in /  1008.5hPa SE 6.9mph /  11.1km/h 11mph /  17.7km/h 35% 0in /  0.0mm
14:29 90.7 °F /  32.6 °C 59.4 °F /  15.2 °C 29.8in /  1008.5hPa SSO 6.4mph /  10.3km/h 10.4mph /  16.7km/h 35.1% 0in /  0.0mm
14:34 91 °F /  32.8 °C 60.8 °F /  16 °C 29.8in /  1008.5hPa SSE 5.4mph /  8.7km/h 13.8mph /  22.2km/h 36.6% 0in /  0.0mm
14:39 91.2 °F /  32.9 °C 61.9 °F /  16.6 °C 29.8in /  1008.3hPa SE 5.9mph /  9.5km/h 15.2mph /  24.5km/h 37.7% 0in /  0.0mm
14:44 91.4 °F /  33 °C 62.1 °F /  16.7 °C 29.8in /  1008.3hPa SE 6.9mph /  11.1km/h 16.3mph /  26.2km/h 37.9% 0in /  0.0mm
14:49 91 °F /  32.8 °C 62.6 °F /  17 °C 29.8in /  1008.3hPa SE 7.6mph /  12.3km/h 16.1mph /  25.9km/h 38.9% 0in /  0.0mm
14:54 91.2 °F /  32.9 °C 63.7 °F /  17.6 °C 29.8in /  1008.2hPa ESE 9.2mph /  14.8km/h 16.1mph /  25.9km/h 40.3% 0in /  0.0mm
14:59 91.2 °F /  32.9 °C 63.1 °F /  17.3 °C 29.8in /  1008.2hPa ESE 9.2mph /  14.8km/h 15mph /  24.1km/h 39.5% 0in /  0.0mm
15:04 91 °F /  32.8 °C 63.7 °F /  17.6 °C 29.8in /  1008.2hPa ESE 9.2mph /  14.8km/h 19mph /  30.6km/h 40.2% 0in /  0.0mm
15:09 91.2 °F /  32.9 °C 62.4 °F /  16.9 °C 29.8in /  1008.1hPa ESE 9mph /  14.5km/h 19mph /  30.6km/h 38.5% 0in /  0.0mm
15:14 91.2 °F /  32.9 °C 62.6 °F /  17 °C 29.8in /  1008.1hPa ESE 8.7mph /  14km/h 17mph /  27.4km/h 38.7% 0in /  0.0mm
15:19 91 °F /  32.8 °C 62.1 °F /  16.7 °C 29.8in /  1008.1hPa Este 8.1mph /  13.1km/h 14mph /  22.5km/h 38.1% 0in /  0.0mm
15:24 90.9 °F /  32.7 °C 62.2 °F /  16.8 °C 29.8in /  1008.0hPa SE 6.9mph /  11.1km/h 16.3mph /  26.2km/h 38.7% 0in /  0.0mm
15:29 91 °F /  32.8 °C 62.1 °F /  16.7 °C 29.8in /  1008.0hPa ESE 7.6mph /  12.3km/h 16.1mph /  25.9km/h 38.1% 0in /  0.0mm
15:34 91.6 °F /  33.1 °C 62.4 °F /  16.9 °C 29.8in /  1008.0hPa ESE 9.2mph /  14.8km/h 17.3mph /  27.8km/h 38.2% 0in /  0.0mm
15:39 91.8 °F /  33.2 °C 61.7 °F /  16.5 °C 29.8in /  1007.9hPa ESE 9mph /  14.5km/h 17mph /  27.4km/h 37% 0in /  0.0mm
15:44 91.2 °F /  32.9 °C 61.5 °F /  16.4 °C 29.8in /  1007.9hPa ESE 8.7mph /  14km/h 15mph /  24.1km/h 37.3% 0in /  0.0mm
15:49 91 °F /  32.8 °C 61.3 °F /  16.3 °C 29.8in /  1007.9hPa ESE 8.6mph /  13.9km/h 17.3mph /  27.8km/h 37.1% 0in /  0.0mm
15:54 91 °F /  32.8 °C 61.2 °F /  16.2 °C 29.8in /  1007.9hPa ESE 8.5mph /  13.7km/h 17mph /  27.4km/h 37.1% 0in /  0.0mm
15:59 91.2 °F /  32.9 °C 61.3 °F /  16.3 °C 29.8in /  1007.9hPa ESE 8.8mph /  14.1km/h 16.3mph /  26.2km/h 37% 0in /  0.0mm
16:04 91.2 °F /  32.9 °C 61.9 °F /  16.6 °C 29.8in /  1007.9hPa ESE 9.2mph /  14.8km/h 18.5mph /  29.8km/h 37.6% 0in /  0.0mm
16:09 91 °F /  32.8 °C 61.9 °F /  16.6 °C 29.8in /  1007.9hPa ESE 9.9mph /  15.9km/h 19mph /  30.6km/h 37.9% 0in /  0.0mm
16:14 91 °F /  32.8 °C 62.1 °F /  16.7 °C 29.8in /  1007.9hPa ESE 11.2mph /  18km/h 18.5mph /  29.8km/h 38.2% 0in /  0.0mm
16:19 90.9 °F /  32.7 °C 61.7 °F /  16.5 °C 29.8in /  1007.9hPa ESE 11.2mph /  18km/h 19mph /  30.6km/h 38% 0in /  0.0mm
16:24 90.9 °F /  32.7 °C 61.9 °F /  16.6 °C 29.8in /  1007.8hPa SE 11.2mph /  18km/h 18mph /  29km/h 38.3% 0in /  0.0mm
16:29 90.9 °F /  32.7 °C 62.1 °F /  16.7 °C 29.8in /  1007.8hPa ESE 10.9mph /  17.5km/h 16.1mph /  25.9km/h 38.4% 0in /  0.0mm
16:34 91 °F /  32.8 °C 62.2 °F /  16.8 °C 29.8in /  1007.8hPa SE 10.2mph /  16.4km/h 16mph /  25.7km/h 38.5% 0in /  0.0mm
16:39 91.4 °F /  33 °C 62.2 °F /  16.8 °C 29.8in /  1007.7hPa ESE 10mph /  16.1km/h 18.5mph /  29.8km/h 38% 0in /  0.0mm
16:44 91.2 °F /  32.9 °C 62.1 °F /  16.7 °C 29.8in /  1007.7hPa ESE 9.7mph /  15.6km/h 19mph /  30.6km/h 38% 0in /  0.0mm
16:49 91 °F /  32.8 °C 62.2 °F /  16.8 °C 29.8in /  1007.7hPa ESE 9.8mph /  15.8km/h 16mph /  25.7km/h 38.3% 0in /  0.0mm
16:54 91.6 °F /  33.1 °C 62.6 °F /  17 °C 29.8in /  1007.6hPa SE 10mph /  16.1km/h 14mph /  22.5km/h 38.4% 0in /  0.0mm
16:59 91.6 °F /  33.1 °C 62.4 °F /  16.9 °C 29.8in /  1007.6hPa SE 9.6mph /  15.5km/h 19mph /  30.6km/h 38% 0in /  0.0mm
17:04 91 °F /  32.8 °C 61.9 °F /  16.6 °C 29.8in /  1007.7hPa SE 8.7mph /  14km/h 19mph /  30.6km/h 38% 0in /  0.0mm
17:09 90.9 °F /  32.7 °C 61 °F /  16.1 °C 29.8in /  1007.7hPa SE 9.4mph /  15.1km/h 16.1mph /  25.9km/h 37% 0in /  0.0mm
17:14 90.9 °F /  32.7 °C 61.2 °F /  16.2 °C 29.8in /  1007.7hPa SE 10.7mph /  17.2km/h 16.1mph /  25.9km/h 37.1% 0in /  0.0mm
17:19 90.9 °F /  32.7 °C 61 °F /  16.1 °C 29.8in /  1007.7hPa SSE 10.4mph /  16.7km/h 17mph /  27.4km/h 37% 0in /  0.0mm
17:24 91 °F /  32.8 °C 61.2 °F /  16.2 °C 29.8in /  1007.5hPa SE 9.7mph /  15.6km/h 17.3mph /  27.8km/h 37.1% 0in /  0.0mm
17:29 91 °F /  32.8 °C 61.2 °F /  16.2 °C 29.8in /  1007.5hPa SE 9.8mph /  15.8km/h 16.3mph /  26.2km/h 37% 0in /  0.0mm
17:34 90.9 °F /  32.7 °C 61 °F /  16.1 °C 29.8in /  1007.5hPa SE 10mph /  16.1km/h 16.1mph /  25.9km/h 37% 0in /  0.0mm
17:39 90.7 °F /  32.6 °C 61.2 °F /  16.2 °C 29.8in /  1007.5hPa ESE 10.1mph /  16.2km/h 16mph /  25.7km/h 37.5% 0in /  0.0mm
17:44 90.7 °F /  32.6 °C 61.2 °F /  16.2 °C 29.8in /  1007.5hPa SE 10.2mph /  16.4km/h 15mph /  24.1km/h 37.4% 0in /  0.0mm
17:49 90.3 °F /  32.4 °C 61 °F /  16.1 °C 29.8in /  1007.5hPa ESE 10.4mph /  16.7km/h 15.9mph /  25.6km/h 37.6% 0in /  0.0mm
17:54 90.7 °F /  32.6 °C 61 °F /  16.1 °C 29.8in /  1007.5hPa ESE 10.7mph /  17.2km/h 16mph /  25.7km/h 37.3% 0in /  0.0mm
17:59 90.3 °F /  32.4 °C 61.2 °F /  16.2 °C 29.8in /  1007.5hPa ESE 10.5mph /  16.9km/h 17.3mph /  27.8km/h 37.7% 0in /  0.0mm
18:04 90.5 °F /  32.5 °C 61.3 °F /  16.3 °C 29.8in /  1007.5hPa SE 10.2mph /  16.4km/h 17mph /  27.4km/h 37.8% 0in /  0.0mm
18:09 90.7 °F /  32.6 °C 61.2 °F /  16.2 °C 29.8in /  1007.4hPa SE 10.1mph /  16.2km/h 15.2mph /  24.5km/h 37.5% 0in /  0.0mm
18:14 90.3 °F /  32.4 °C 61.5 °F /  16.4 °C 29.8in /  1007.4hPa SE 9.7mph /  15.6km/h 17.5mph /  28.2km/h 38.3% 0in /  0.0mm
18:19 90.1 °F /  32.3 °C 61.2 °F /  16.2 °C 29.8in /  1007.4hPa SE 9.7mph /  15.6km/h 17mph /  27.4km/h 38.2% 0in /  0.0mm
18:24 90 °F /  32.2 °C 61.2 °F /  16.2 °C 29.8in /  1007.4hPa ESE 9.7mph /  15.6km/h 18.4mph /  29.6km/h 38.3% 0in /  0.0mm
18:29 90.1 °F /  32.3 °C 61.2 °F /  16.2 °C 29.8in /  1007.4hPa SE 9.4mph /  15.1km/h 18mph /  29km/h 38% 0in /  0.0mm
18:34 90.1 °F /  32.3 °C 61 °F /  16.1 °C 29.8in /  1007.4hPa ESE 8.7mph /  14km/h 16mph /  25.7km/h 38% 0in /  0.0mm
18:39 90 °F /  32.2 °C 61 °F /  16.1 °C 29.7in /  1007.3hPa SE 9.1mph /  14.6km/h 15mph /  24.1km/h 38% 0in /  0.0mm
18:44 90.1 °F /  32.3 °C 61 °F /  16.1 °C 29.7in /  1007.3hPa SE 9.7mph /  15.6km/h 14mph /  22.5km/h 37.8% 0in /  0.0mm
18:49 90.1 °F /  32.3 °C 61 °F /  16.1 °C 29.8in /  1007.4hPa SE 9.3mph /  15km/h 14.7mph /  23.7km/h 38% 0in /  0.0mm
18:54 90 °F /  32.2 °C 61 °F /  16.1 °C 29.8in /  1007.4hPa SE 8.5mph /  13.7km/h 15.9mph /  25.6km/h 38% 0in /  0.0mm
18:59 90 °F /  32.2 °C 60.8 °F /  16 °C 29.8in /  1007.4hPa ESE 8.8mph /  14.1km/h 16.1mph /  25.9km/h 38% 0in /  0.0mm
19:04 89.8 °F /  32.1 °C 61.2 °F /  16.2 °C 29.8in /  1007.4hPa SE 9.2mph /  14.8km/h 16mph /  25.7km/h 38.4% 0in /  0.0mm
19:09 89.8 °F /  32.1 °C 61.5 °F /  16.4 °C 29.8in /  1007.4hPa SE 9mph /  14.5km/h 15mph /  24.1km/h 39% 0in /  0.0mm
19:14 89.8 °F /  32.1 °C 61.5 °F /  16.4 °C 29.8in /  1007.4hPa SE 8.7mph /  14km/h 15mph /  24.1km/h 39% 0in /  0.0mm
19:19 89.6 °F /  32 °C 61.3 °F /  16.3 °C 29.8in /  1007.4hPa SE 8.7mph /  14km/h 16.1mph /  25.9km/h 39% 0in /  0.0mm
19:24 89.6 °F /  32 °C 60.6 °F /  15.9 °C 29.7in /  1007.3hPa SE 8.7mph /  14km/h 16.1mph /  25.9km/h 38.2% 0in /  0.0mm
19:29 89.6 °F /  32 °C 60.8 °F /  16 °C 29.7in /  1007.3hPa SE 8.3mph /  13.3km/h 16mph /  25.7km/h 38.2% 0in /  0.0mm
19:34 89.4 °F /  31.9 °C 60.4 °F /  15.8 °C 29.7in /  1007.3hPa SE 7.4mph /  11.9km/h 14mph /  22.5km/h 38% 0in /  0.0mm
19:39 89.2 °F /  31.8 °C 61 °F /  16.1 °C 29.7in /  1007.3hPa ESE 7.6mph /  12.3km/h 14mph /  22.5km/h 38.9% 0in /  0.0mm
19:44 89.2 °F /  31.8 °C 60.4 °F /  15.8 °C 29.7in /  1007.3hPa ESE 8.1mph /  13km/h 14mph /  22.5km/h 38.3% 0in /  0.0mm
19:49 89.1 °F /  31.7 °C 60.8 °F /  16 °C 29.8in /  1007.4hPa SE 8.3mph /  13.3km/h 14mph /  22.5km/h 38.9% 0in /  0.0mm
19:54 88.9 °F /  31.6 °C 60.6 °F /  15.9 °C 29.8in /  1007.4hPa ESE 8.7mph /  14km/h 14mph /  22.5km/h 38.9% 0in /  0.0mm
19:59 88.9 °F /  31.6 °C 60.3 °F /  15.7 °C 29.8in /  1007.4hPa ESE 8.5mph /  13.7km/h 14mph /  22.5km/h 38.4% 0in /  0.0mm
20:04 88.9 °F /  31.6 °C 60.4 °F /  15.8 °C 29.8in /  1007.4hPa ESE 8.1mph /  13km/h 14mph /  22.5km/h 38.5% 0in /  0.0mm
20:09 88.9 °F /  31.6 °C 60.6 °F /  15.9 °C 29.8in /  1007.4hPa ESE 7.9mph /  12.7km/h 12mph /  19.3km/h 39% 0in /  0.0mm
20:14 88.5 °F /  31.4 °C 60.3 °F /  15.7 °C 29.8in /  1007.4hPa ESE 7.4mph /  11.9km/h 12mph /  19.3km/h 38.8% 0in /  0.0mm
20:19 88.5 °F /  31.4 °C 59.9 °F /  15.5 °C 29.8in /  1007.5hPa ESE 7.5mph /  12km/h 12.3mph /  19.8km/h 38.2% 0in /  0.0mm
20:24 88.3 °F /  31.3 °C 59.5 °F /  15.3 °C 29.8in /  1007.5hPa ESE 7.6mph /  12.2km/h 13mph /  20.9km/h 38% 0in /  0.0mm
20:29 88.3 °F /  31.3 °C 59.5 °F /  15.3 °C 29.8in /  1007.5hPa ESE 7.4mph /  11.9km/h 13mph /  20.9km/h 38% 0in /  0.0mm
20:34 88.2 °F /  31.2 °C 59.4 °F /  15.2 °C 29.8in /  1007.6hPa ESE 6.9mph /  11.1km/h 12mph /  19.3km/h 38% 0in /  0.0mm
20:39 88 °F /  31.1 °C 59.2 °F /  15.1 °C 29.8in /  1007.6hPa ESE 6.7mph /  10.8km/h 12mph /  19.3km/h 38% 0in /  0.0mm
20:44 88 °F /  31.1 °C 59.5 °F /  15.3 °C 29.8in /  1007.6hPa ESE 6.4mph /  10.3km/h 11.2mph /  18km/h 38.5% 0in /  0.0mm
20:49 87.6 °F /  30.9 °C 59.5 °F /  15.3 °C 29.8in /  1007.7hPa ESE 6.6mph /  10.6km/h 12mph /  19.3km/h 38.9% 0in /  0.0mm
20:54 87.3 °F /  30.7 °C 59.4 °F /  15.2 °C 29.8in /  1007.7hPa ESE 6.9mph /  11.1km/h 12mph /  19.3km/h 39% 0in /  0.0mm
20:59 87.3 °F /  30.7 °C 59.2 °F /  15.1 °C 29.8in /  1007.7hPa ESE 6.7mph /  10.8km/h 10.7mph /  17.2km/h 39% 0in /  0.0mm
21:04 87.1 °F /  30.6 °C 59.4 °F /  15.2 °C 29.8in /  1007.9hPa ESE 6.4mph /  10.3km/h 11mph /  17.7km/h 39.5% 0in /  0.0mm
21:09 86.7 °F /  30.4 °C 59.5 °F /  15.3 °C 29.8in /  1007.9hPa ESE 6.3mph /  10.1km/h 10.4mph /  16.7km/h 40% 0in /  0.0mm
21:14 86.4 °F /  30.2 °C 59.2 °F /  15.1 °C 29.8in /  1007.9hPa ESE 5.9mph /  9.5km/h 10.4mph /  16.7km/h 40% 0in /  0.0mm
21:19 86.2 °F /  30.1 °C 59 °F /  15 °C 29.8in /  1008.0hPa ESE 6.4mph /  10.3km/h 10.7mph /  17.2km/h 40% 0in /  0.0mm
21:24 86 °F /  30 °C 59 °F /  15 °C 29.8in /  1008.0hPa ESE 7.4mph /  11.9km/h 11mph /  17.7km/h 40.1% 0in /  0.0mm
21:29 85.8 °F /  29.9 °C 58.6 °F /  14.8 °C 29.8in /  1008.0hPa ESE 7.1mph /  11.4km/h 11.5mph /  18.5km/h 40% 0in /  0.0mm
21:34 85.6 °F /  29.8 °C 59 °F /  15 °C 29.8in /  1008.2hPa ESE 6.4mph /  10.3km/h 12mph /  19.3km/h 40.6% 0in /  0.0mm
21:39 85.5 °F /  29.7 °C 59.2 °F /  15.1 °C 29.8in /  1008.2hPa ESE 6.7mph /  10.8km/h 13.8mph /  22.2km/h 41% 0in /  0.0mm
21:44 85.3 °F /  29.6 °C 59 °F /  15 °C 29.8in /  1008.2hPa Este 7.4mph /  11.9km/h 14mph /  22.5km/h 41.2% 0in /  0.0mm
21:49 85.1 °F /  29.5 °C 59.4 °F /  15.2 °C 29.8in /  1008.3hPa Este 6.6mph /  10.7km/h 8.1mph /  13km/h 42% 0in /  0.0mm
21:54 84.9 °F /  29.4 °C 59.4 °F /  15.2 °C 29.8in /  1008.3hPa NE 5.2mph /  8.4km/h 8mph /  12.9km/h 42.2% 0in /  0.0mm
21:59 84.6 °F /  29.2 °C 60.3 °F /  15.7 °C 29.8in /  1008.3hPa NNE 4.8mph /  7.8km/h 9.2mph /  14.8km/h 43.8% 0in /  0.0mm
22:04 84 °F /  28.9 °C 62.2 °F /  16.8 °C 29.8in /  1008.7hPa NNE 4.3mph /  6.9km/h 9.7mph /  15.6km/h 48% 0in /  0.0mm
22:09 83.5 °F /  28.6 °C 63.3 °F /  17.4 °C 29.8in /  1008.7hPa NE 4.9mph /  7.9km/h 10.4mph /  16.7km/h 50.8% 0in /  0.0mm
22:14 82.9 °F /  28.3 °C 64.9 °F /  18.3 °C 29.8in /  1008.7hPa NE 6.2mph /  10km/h 10mph /  16.1km/h 54.6% 0in /  0.0mm
22:19 82.6 °F /  28.1 °C 65.7 °F /  18.7 °C 29.8in /  1008.9hPa NE 6.2mph /  10km/h 10.4mph /  16.7km/h 56.5% 0in /  0.0mm
22:24 82.2 °F /  27.9 °C 66.6 °F /  19.2 °C 29.8in /  1008.9hPa NE 6.2mph /  10km/h 11.5mph /  18.5km/h 59.1% 0in /  0.0mm
22:29 81.9 °F /  27.7 °C 67.3 °F /  19.6 °C 29.8in /  1008.9hPa NE 6.3mph /  10.1km/h 12mph /  19.3km/h 61.6% 0in /  0.0mm
22:34 81.3 °F /  27.4 °C 67.6 °F /  19.8 °C 29.8in /  1009.1hPa NE 6.4mph /  10.3km/h 14.5mph /  23.3km/h 63.5% 0in /  0.0mm
22:39 80.8 °F /  27.1 °C 68.4 °F /  20.2 °C 29.8in /  1009.1hPa NE 6.8mph /  10.9km/h 15mph /  24.1km/h 66.1% 0in /  0.0mm
22:44 80.2 °F /  26.8 °C 68.9 °F /  20.5 °C 29.8in /  1009.1hPa NE 7.6mph /  12.2km/h 12.7mph /  20.4km/h 68.2% 0in /  0.0mm
22:49 79.9 °F /  26.6 °C 69.1 °F /  20.6 °C 29.8in /  1009.3hPa NNE 7.6mph /  12.2km/h 15mph /  24.1km/h 69.7% 0in /  0.0mm
22:54 79.3 °F /  26.3 °C 69.3 °F /  20.7 °C 29.8in /  1009.3hPa NE 7.6mph /  12.2km/h 15mph /  24.1km/h 70.9% 0in /  0.0mm
22:59 79.2 °F /  26.2 °C 69.4 °F /  20.8 °C 29.8in /  1009.3hPa NNE 7.8mph /  12.5km/h 13.8mph /  22.2km/h 71.9% 0in /  0.0mm
23:04 79 °F /  26.1 °C 69.3 °F /  20.7 °C 29.8in /  1009.5hPa NNE 8.1mph /  13km/h 14mph /  22.5km/h 72.1% 0in /  0.0mm
23:09 79 °F /  26.1 °C 69.4 °F /  20.8 °C 29.8in /  1009.5hPa NNE 8.1mph /  13km/h 12mph /  19.3km/h 73% 0in /  0.0mm
23:14 78.6 °F /  25.9 °C 69.3 °F /  20.7 °C 29.8in /  1009.5hPa NNE 8.1mph /  13km/h 12mph /  19.3km/h 73% 0in /  0.0mm
23:19 78.6 °F /  25.9 °C 69.3 °F /  20.7 °C 29.8in /  1009.6hPa NNE 8.1mph /  13km/h 12mph /  19.3km/h 73.3% 0in /  0.0mm
23:24 78.4 °F /  25.8 °C 69.4 °F /  20.8 °C 29.8in /  1009.6hPa NNE 8.1mph /  13km/h 13mph /  20.9km/h 74% 0in /  0.0mm
23:29 78.3 °F /  25.7 °C 69.6 °F /  20.9 °C 29.8in /  1009.6hPa NNE 8.3mph /  13.3km/h 14mph /  22.5km/h 74.8% 0in /  0.0mm
23:34 78.3 °F /  25.7 °C 69.6 °F /  20.9 °C 29.8in /  1009.6hPa NE 8.5mph /  13.7km/h 14mph /  22.5km/h 75% 0in /  0.0mm
23:39 77.9 °F /  25.5 °C 69.6 °F /  20.9 °C 29.8in /  1009.6hPa NNE 8.5mph /  13.7km/h 13mph /  20.9km/h 75.9% 0in /  0.0mm
23:44 77.7 °F /  25.4 °C 69.6 °F /  20.9 °C 29.8in /  1009.6hPa NE 8.5mph /  13.7km/h 13.7mph /  22km/h 76.4% 0in /  0.0mm
23:49 77.5 °F /  25.3 °C 69.8 °F /  21 °C 29.8in /  1009.8hPa NNE 8.3mph /  13.4km/h 14mph /  22.5km/h 77% 0in /  0.0mm
23:54 77.4 °F /  25.2 °C 69.6 °F /  20.9 °C 29.8in /  1009.8hPa NE 8.1mph /  13km/h 14mph /  22.5km/h 77% 0in /  0.0mm
23:59 77.4 °F /  25.2 °C 69.6 °F /  20.9 °C 29.8in /  1009.8hPa NE 7.6mph /  12.3km/h 12mph /  19.3km/h 77% 0in /  0.0mm
Murcia-Puente Tocinos, España
Compliments of Weather Underground - 3 mb

La estación de MeteoMurcia.com, publica sus datos en los siguientes proyectos:

Weather Underground PWS IMURCIAP2 Meteoclimatic www.awekas.at

W3Counter
Web Analytics